createdAt,value
2018-07-17T00:01:31.224Z,22.00
2018-07-17T00:04:03.504Z,21.80
2018-07-17T00:06:32.615Z,21.70
2018-07-17T00:09:02.196Z,21.70
2018-07-17T00:11:31.042Z,21.60
2018-07-17T00:13:59.899Z,21.70
2018-07-17T00:16:29.482Z,21.70
2018-07-17T00:18:58.333Z,21.80
2018-07-17T00:21:27.171Z,21.80
2018-07-17T00:23:56.031Z,21.70
2018-07-17T00:26:24.874Z,21.80
2018-07-17T00:28:53.710Z,21.70
2018-07-17T00:31:22.541Z,21.60
2018-07-17T00:33:51.374Z,21.40
2018-07-17T00:36:20.213Z,21.50
2018-07-17T00:38:49.790Z,21.60
2018-07-17T00:41:18.628Z,21.60
2018-07-17T00:43:47.477Z,21.50
2018-07-17T00:46:16.328Z,21.50
2018-07-17T00:48:45.162Z,21.60
2018-07-17T00:53:43.451Z,21.50
2018-07-17T00:56:12.285Z,21.40
2018-07-17T00:58:41.126Z,21.40
2018-07-17T01:01:09.432Z,21.30
2018-07-17T01:03:43.763Z,21.40
2018-07-17T01:06:18.191Z,21.30
2018-07-17T01:08:52.646Z,21.30
2018-07-17T01:11:27.109Z,21.30
2018-07-17T01:13:56.695Z,21.30
2018-07-17T01:16:25.617Z,21.30
2018-07-17T01:18:54.462Z,21.40
2018-07-17T01:21:23.294Z,21.40
2018-07-17T01:23:52.145Z,21.50
2018-07-17T01:26:20.984Z,21.40
2018-07-17T01:28:49.816Z,21.40
2018-07-17T01:31:18.658Z,21.30
2018-07-17T01:33:47.526Z,21.20
2018-07-17T01:36:16.333Z,21.10
2018-07-17T01:38:45.170Z,21.20
2018-07-17T01:41:14.010Z,21.10
2018-07-17T01:43:42.848Z,21.10
2018-07-17T01:46:11.677Z,21.10
2018-07-17T01:48:40.520Z,21.00
2018-07-17T01:51:09.376Z,21.00
2018-07-17T01:53:38.208Z,21.00
2018-07-17T01:56:07.042Z,21.00
2018-07-17T01:58:35.891Z,20.90
2018-07-17T02:01:04.739Z,20.90
2018-07-17T02:03:33.568Z,20.90
2018-07-17T02:06:02.417Z,20.90
2018-07-17T02:08:31.251Z,20.80
2018-07-17T02:11:00.106Z,20.80
2018-07-17T02:13:28.937Z,20.70
2018-07-17T02:15:58.518Z,20.60
2018-07-17T02:18:27.368Z,20.50
2018-07-17T02:20:56.209Z,20.50
2018-07-17T02:23:25.043Z,20.50
2018-07-17T02:25:53.891Z,20.50
2018-07-17T02:28:22.725Z,20.50
2018-07-17T02:30:51.565Z,20.40
2018-07-17T02:33:20.404Z,20.50
2018-07-17T02:35:49.250Z,20.50
2018-07-17T02:38:18.100Z,20.40
2018-07-17T02:40:46.932Z,20.50
2018-07-17T02:43:15.782Z,20.50
2018-07-17T02:45:44.621Z,20.60
2018-07-17T02:48:13.491Z,20.70
2018-07-17T02:50:42.340Z,20.60
2018-07-17T02:53:11.183Z,20.60
2018-07-17T02:55:40.037Z,20.50
2018-07-17T02:58:08.877Z,20.50
2018-07-17T03:00:37.719Z,20.50
2018-07-17T03:03:06.564Z,20.40
2018-07-17T03:05:35.550Z,20.40
2018-07-17T03:08:04.283Z,20.40
2018-07-17T03:10:33.126Z,20.50
2018-07-17T03:13:01.991Z,20.40
2018-07-17T03:15:30.840Z,20.30
2018-07-17T03:17:59.677Z,20.30
2018-07-17T03:20:28.548Z,20.20
2018-07-17T03:22:57.440Z,20.20
2018-07-17T03:25:26.284Z,20.20
2018-07-17T03:27:55.123Z,20.10
2018-07-17T03:30:24.716Z,20.00
2018-07-17T03:32:53.553Z,20.00
2018-07-17T03:35:22.400Z,19.90
2018-07-17T03:37:51.240Z,19.90
2018-07-17T03:40:20.295Z,19.80
2018-07-17T03:42:49.137Z,19.70
2018-07-17T03:45:17.976Z,19.70
2018-07-17T03:47:46.816Z,19.70
2018-07-17T03:50:15.649Z,19.70
2018-07-17T03:52:44.473Z,19.70
2018-07-17T03:57:45.185Z,19.70
2018-07-17T04:00:14.006Z,19.70
2018-07-17T04:02:42.892Z,19.70
2018-07-17T04:05:11.720Z,19.70
2018-07-17T04:07:40.545Z,19.60
2018-07-17T04:10:09.402Z,19.60
2018-07-17T04:12:38.258Z,19.60
2018-07-17T04:15:07.096Z,19.60
2018-07-17T04:17:35.941Z,19.70
2018-07-17T04:20:04.783Z,19.70
2018-07-17T04:22:33.623Z,19.70
2018-07-17T04:25:02.457Z,19.70
2018-07-17T04:27:31.290Z,19.70
2018-07-17T04:30:00.129Z,19.70
2018-07-17T04:32:28.969Z,19.50
2018-07-17T04:34:57.828Z,19.60
2018-07-17T04:37:27.406Z,19.60
2018-07-17T04:39:56.246Z,19.60
2018-07-17T04:42:25.094Z,19.60
2018-07-17T04:44:54.773Z,19.60
2018-07-17T04:47:23.532Z,19.70
2018-07-17T04:49:52.370Z,19.50
2018-07-17T04:52:21.209Z,19.50
2018-07-17T04:54:50.053Z,19.50
2018-07-17T04:57:18.874Z,19.50
2018-07-17T04:59:47.718Z,19.40
2018-07-17T05:02:16.549Z,19.50
2018-07-17T05:04:45.421Z,19.50
2018-07-17T05:07:14.297Z,19.70
2018-07-17T05:09:43.093Z,19.70
2018-07-17T05:12:11.931Z,19.60
2018-07-17T05:14:40.767Z,19.60
2018-07-17T05:17:09.599Z,19.60
2018-07-17T05:19:38.435Z,19.60
2018-07-17T05:22:07.271Z,19.60
2018-07-17T05:24:36.116Z,19.60
2018-07-17T05:27:04.973Z,19.60
2018-07-17T05:29:33.812Z,19.70
2018-07-17T05:32:02.665Z,19.70
2018-07-17T05:34:31.491Z,19.80
2018-07-17T05:37:00.337Z,19.80
2018-07-17T05:39:29.213Z,19.90
2018-07-17T05:41:58.067Z,19.90
2018-07-17T05:44:27.046Z,19.90
2018-07-17T05:46:55.896Z,20.00
2018-07-17T05:49:24.740Z,20.10
2018-07-17T05:51:53.605Z,20.20
2018-07-17T05:54:22.427Z,20.10
2018-07-17T05:56:52.010Z,20.20
2018-07-17T05:59:20.876Z,20.20
2018-07-17T06:01:49.705Z,20.30
2018-07-17T06:04:18.693Z,20.30
2018-07-17T06:06:47.535Z,20.40
2018-07-17T06:09:16.377Z,20.40
2018-07-17T06:11:45.231Z,20.50
2018-07-17T06:14:14.060Z,20.60
2018-07-17T06:16:42.895Z,20.60
2018-07-17T06:19:11.745Z,20.70
2018-07-17T06:21:41.330Z,20.70
2018-07-17T06:24:10.177Z,20.80
2018-07-17T06:26:39.017Z,20.80
2018-07-17T06:29:07.849Z,20.90
2018-07-17T06:31:36.695Z,21.00
2018-07-17T06:34:05.541Z,21.10
2018-07-17T06:36:34.379Z,21.10
2018-07-17T06:39:03.223Z,21.10
2018-07-17T06:41:32.059Z,21.20
2018-07-17T06:44:00.899Z,21.20
2018-07-17T06:46:29.885Z,21.20
2018-07-17T06:48:59.322Z,21.20
2018-07-17T06:51:28.168Z,21.30
2018-07-17T06:53:56.993Z,21.40
2018-07-17T06:56:25.833Z,21.50
2018-07-17T06:58:54.686Z,21.50
2018-07-17T07:01:24.273Z,21.60
2018-07-17T07:03:53.111Z,21.60
2018-07-17T07:06:22.705Z,21.70
2018-07-17T07:08:52.289Z,21.70
2018-07-17T07:11:21.157Z,21.80
2018-07-17T07:13:49.963Z,21.90
2018-07-17T07:16:18.814Z,21.90
2018-07-17T07:18:47.667Z,22.00
2018-07-17T07:21:16.491Z,22.10
2018-07-17T07:23:45.331Z,22.20
2018-07-17T07:26:14.179Z,22.30
2018-07-17T07:28:43.014Z,22.40
2018-07-17T07:31:11.979Z,22.40
2018-07-17T07:33:40.731Z,22.50
2018-07-17T07:36:09.560Z,22.60
2018-07-17T07:38:38.392Z,22.70
2018-07-17T07:41:07.238Z,22.80
2018-07-17T07:43:36.091Z,22.90
2018-07-17T07:46:04.946Z,22.90
2018-07-17T07:48:33.824Z,22.90
2018-07-17T07:51:02.643Z,23.10
2018-07-17T07:53:31.482Z,23.20
2018-07-17T07:56:00.315Z,23.30
2018-07-17T07:58:29.902Z,23.40
2018-07-17T08:00:58.755Z,23.60
2018-07-17T08:03:27.614Z,23.70
2018-07-17T08:05:57.180Z,23.80
2018-07-17T08:08:26.023Z,23.90
2018-07-17T08:10:54.871Z,23.90
2018-07-17T08:13:23.715Z,24.00
2018-07-17T08:15:52.553Z,24.10
2018-07-17T08:18:22.191Z,24.20
2018-07-17T08:20:51.032Z,24.30
2018-07-17T08:23:19.885Z,24.50
2018-07-17T08:25:48.718Z,24.60
2018-07-17T08:28:17.606Z,24.70
2018-07-17T08:30:46.409Z,24.70
2018-07-17T08:33:15.984Z,24.80
2018-07-17T08:35:44.863Z,24.90
2018-07-17T08:38:13.662Z,25.00
2018-07-17T08:40:42.517Z,25.00
2018-07-17T08:43:11.425Z,25.00
2018-07-17T08:45:41.025Z,25.20
2018-07-17T08:48:09.886Z,25.20
2018-07-17T08:50:38.732Z,25.30
2018-07-17T08:53:07.573Z,25.50
2018-07-17T08:55:36.424Z,25.50
2018-07-17T08:58:05.271Z,25.70
2018-07-17T09:00:34.147Z,25.80
2018-07-17T09:03:02.965Z,25.90
2018-07-17T09:05:31.807Z,26.10
2018-07-17T09:08:01.385Z,26.10
2018-07-17T09:10:30.241Z,26.20
2018-07-17T09:12:59.086Z,26.30
2018-07-17T09:15:27.926Z,26.30
2018-07-17T09:17:56.758Z,26.40
2018-07-17T09:20:25.617Z,26.50
2018-07-17T09:22:54.461Z,26.60
2018-07-17T09:25:23.343Z,26.70
2018-07-17T09:27:52.143Z,26.70
2018-07-17T09:30:20.977Z,26.90
2018-07-17T09:32:49.816Z,26.90
2018-07-17T09:35:18.668Z,26.90
2018-07-17T09:37:47.506Z,27.10
2018-07-17T09:40:16.353Z,27.20
2018-07-17T09:42:45.190Z,27.30
2018-07-17T09:45:14.037Z,27.20
2018-07-17T09:47:42.887Z,27.30
2018-07-17T09:50:11.723Z,27.30
2018-07-17T09:52:40.568Z,27.40
2018-07-17T09:55:09.403Z,27.40
2018-07-17T09:57:38.238Z,27.50
2018-07-17T10:00:07.086Z,27.60
2018-07-17T10:02:35.937Z,27.60
2018-07-17T10:05:04.777Z,27.60
2018-07-17T10:07:33.625Z,27.80
2018-07-17T10:10:02.491Z,27.90
2018-07-17T10:12:31.339Z,28.00
2018-07-17T10:15:00.200Z,28.20
2018-07-17T10:17:29.040Z,28.30
2018-07-17T10:19:58.651Z,28.50
2018-07-17T10:22:27.491Z,28.60
2018-07-17T10:24:56.338Z,28.60
2018-07-17T10:27:25.196Z,28.70
2018-07-17T10:29:54.051Z,28.90
2018-07-17T10:32:22.897Z,28.90
2018-07-17T10:34:52.718Z,28.90
2018-07-17T10:37:21.323Z,29.20
2018-07-17T10:39:50.177Z,29.20
2018-07-17T10:42:19.037Z,29.30
2018-07-17T10:44:47.938Z,29.40
2018-07-17T10:47:16.724Z,29.40
2018-07-17T10:49:45.585Z,29.20
2018-07-17T10:52:14.424Z,29.30
2018-07-17T10:54:44.001Z,29.20
2018-07-17T10:57:12.848Z,29.20
2018-07-17T10:59:41.695Z,29.10
2018-07-17T11:02:10.530Z,28.90
2018-07-17T11:04:39.374Z,28.80
2018-07-17T11:07:08.210Z,28.70
2018-07-17T11:09:37.056Z,28.40
2018-07-17T11:12:05.892Z,27.80
2018-07-17T11:14:34.723Z,27.30
2018-07-17T11:17:03.553Z,26.90
2018-07-17T11:19:32.382Z,26.50
2018-07-17T11:22:01.219Z,26.00
2018-07-17T11:24:30.056Z,25.60
2018-07-17T11:26:58.895Z,25.30
2018-07-17T11:29:28.491Z,25.00
2018-07-17T11:31:57.347Z,24.80
2018-07-17T11:34:26.207Z,24.90
2018-07-17T11:36:55.783Z,24.90
2018-07-17T11:39:24.642Z,24.90
2018-07-17T11:41:53.477Z,24.80
2018-07-17T11:44:22.419Z,24.50
2018-07-17T11:46:51.271Z,24.50
2018-07-17T11:49:20.114Z,24.60
2018-07-17T11:51:48.972Z,24.70
2018-07-17T11:54:17.810Z,24.80
2018-07-17T11:56:46.645Z,24.90
2018-07-17T11:59:15.536Z,24.80
2018-07-17T12:01:44.373Z,24.70
2018-07-17T12:04:13.962Z,24.70
2018-07-17T12:06:42.812Z,24.50
2018-07-17T12:09:11.666Z,24.10
2018-07-17T12:11:40.508Z,23.80
2018-07-17T12:14:09.345Z,23.40
2018-07-17T12:16:38.193Z,22.90
2018-07-17T12:19:07.046Z,22.50
2018-07-17T12:21:35.905Z,22.60
2018-07-17T12:24:05.479Z,22.70
2018-07-17T12:26:34.321Z,22.70
2018-07-17T12:29:03.164Z,22.70
2018-07-17T12:31:31.999Z,22.70
2018-07-17T12:34:01.582Z,22.70
2018-07-17T12:36:30.430Z,22.70
2018-07-17T12:38:59.271Z,22.80
2018-07-17T12:41:28.116Z,22.80
2018-07-17T12:43:56.954Z,22.80
2018-07-17T12:46:25.805Z,22.80
2018-07-17T12:48:54.650Z,22.70
2018-07-17T12:51:23.479Z,22.60
2018-07-17T12:53:52.332Z,22.60
2018-07-17T12:56:21.197Z,22.70
2018-07-17T12:58:50.024Z,22.80
2018-07-17T13:01:19.615Z,22.80
2018-07-17T13:03:48.517Z,22.80
2018-07-17T13:06:17.308Z,22.60
2018-07-17T13:08:46.151Z,22.60
2018-07-17T13:11:15.000Z,22.60
2018-07-17T13:13:43.844Z,22.50
2018-07-17T13:16:12.693Z,22.40
2018-07-17T13:18:41.542Z,22.30
2018-07-17T13:21:10.387Z,22.40
2018-07-17T13:23:39.241Z,22.50
2018-07-17T13:26:08.821Z,22.70
2018-07-17T13:31:07.831Z,23.10
2018-07-17T13:33:36.673Z,23.00
2018-07-17T13:36:05.526Z,22.80
2018-07-17T13:38:34.375Z,22.70
2018-07-17T13:41:03.219Z,22.80
2018-07-17T13:43:32.796Z,22.90
2018-07-17T13:46:01.641Z,23.00
2018-07-17T13:48:30.495Z,23.10
2018-07-17T13:50:59.351Z,23.10
2018-07-17T13:53:28.194Z,23.60
2018-07-17T13:55:57.797Z,24.10
2018-07-17T13:58:26.638Z,24.20
2018-07-17T14:00:55.487Z,24.50
2018-07-17T14:03:24.329Z,24.70
2018-07-17T14:05:53.916Z,24.60
2018-07-17T14:10:52.194Z,25.40
2018-07-17T14:13:21.068Z,25.80
2018-07-17T14:15:50.181Z,26.20
2018-07-17T14:18:19.032Z,26.50
2018-07-17T14:20:47.878Z,26.80
2018-07-17T14:23:16.723Z,26.80
2018-07-17T14:25:45.559Z,27.10
2018-07-17T14:28:14.408Z,27.30
2018-07-17T14:30:43.258Z,27.60
2018-07-17T14:33:12.861Z,27.80
2018-07-17T14:35:41.717Z,28.00
2018-07-17T14:38:10.564Z,28.20
2018-07-17T14:40:39.411Z,28.30
2018-07-17T14:43:09.003Z,28.60
2018-07-17T14:45:37.847Z,29.00
2018-07-17T14:48:06.712Z,29.10
2018-07-17T14:50:35.526Z,29.30
2018-07-17T14:53:04.371Z,29.30
2018-07-17T14:55:33.208Z,29.60
2018-07-17T14:58:02.058Z,29.70
2018-07-17T15:00:30.909Z,29.70
2018-07-17T15:02:59.744Z,29.70
2018-07-17T15:05:29.339Z,29.80
2018-07-17T15:10:27.638Z,30.00
2018-07-17T15:12:56.492Z,30.20
2018-07-17T15:15:25.374Z,30.20
2018-07-17T15:17:54.188Z,30.20
2018-07-17T15:20:23.031Z,30.30
2018-07-17T15:22:51.883Z,30.30
2018-07-17T15:25:20.722Z,30.20
2018-07-17T15:27:50.355Z,29.80
2018-07-17T15:30:19.186Z,29.40
2018-07-17T15:32:48.020Z,29.10
2018-07-17T15:35:16.976Z,28.70
2018-07-17T15:37:45.722Z,28.50
2018-07-17T15:40:14.614Z,28.30
2018-07-17T15:42:43.474Z,27.60
2018-07-17T15:45:12.314Z,26.90
2018-07-17T15:47:41.170Z,26.20
2018-07-17T15:50:10.014Z,25.70
2018-07-17T15:52:38.858Z,25.20
2018-07-17T15:55:07.714Z,25.00
2018-07-17T15:57:36.553Z,24.70
2018-07-17T16:00:05.392Z,24.50
2018-07-17T16:02:34.232Z,24.40
2018-07-17T16:05:03.089Z,24.50
2018-07-17T16:07:31.949Z,24.70
2018-07-17T16:10:01.572Z,24.90
2018-07-17T16:12:30.384Z,25.10
2018-07-17T16:14:59.238Z,25.30
2018-07-17T16:17:28.821Z,25.50
2018-07-17T16:19:57.691Z,25.60
2018-07-17T16:22:26.536Z,25.80
2018-07-17T16:24:56.116Z,26.20
2018-07-17T16:27:24.967Z,26.60
2018-07-17T16:29:53.813Z,27.10
2018-07-17T16:32:23.402Z,27.50
2018-07-17T16:34:52.305Z,27.70
2018-07-17T16:37:21.134Z,27.80
2018-07-17T16:39:49.977Z,28.00
2018-07-17T16:42:18.903Z,28.20
2018-07-17T16:44:47.662Z,28.50
2018-07-17T16:47:16.522Z,28.60
2018-07-17T16:49:45.366Z,28.50
2018-07-17T16:52:14.935Z,28.30
2018-07-17T16:57:13.951Z,28.60
2018-07-17T16:59:42.793Z,28.70
2018-07-17T17:02:11.631Z,28.70
2018-07-17T17:04:40.476Z,28.80
2018-07-17T17:07:09.321Z,28.90
2018-07-17T17:09:38.160Z,28.70
2018-07-17T17:12:07.018Z,28.30
2018-07-17T17:14:36.596Z,28.40
2018-07-17T17:17:05.432Z,28.30
2018-07-17T17:19:34.366Z,28.10
2018-07-17T17:22:03.107Z,27.70
2018-07-17T17:24:32.013Z,27.80
2018-07-17T17:27:00.805Z,27.70
2018-07-17T17:29:29.727Z,27.60
2018-07-17T17:31:58.532Z,27.50
2018-07-17T17:34:27.325Z,27.30
2018-07-17T17:36:56.912Z,27.30
2018-07-17T17:39:25.811Z,27.20
2018-07-17T17:41:54.595Z,27.00
2018-07-17T17:44:23.481Z,26.90
2018-07-17T17:46:52.322Z,26.90
2018-07-17T17:49:21.165Z,26.80
2018-07-17T17:51:50.084Z,26.80
2018-07-17T17:54:18.868Z,26.70
2018-07-17T17:56:48.440Z,26.60
2018-07-17T17:59:17.285Z,26.60
2018-07-17T18:01:46.147Z,26.60
2018-07-17T18:04:14.979Z,26.50
2018-07-17T18:06:43.833Z,26.50
2018-07-17T18:09:12.685Z,26.40
2018-07-17T18:11:41.536Z,26.40
2018-07-17T18:14:10.367Z,26.30
2018-07-17T18:16:39.207Z,26.30
2018-07-17T18:19:08.072Z,26.30
2018-07-17T18:21:36.902Z,26.20
2018-07-17T18:24:05.744Z,26.20
2018-07-17T18:26:35.883Z,26.10
2018-07-17T18:29:05.522Z,26.10
2018-07-17T18:31:34.363Z,26.00
2018-07-17T18:34:03.221Z,26.00
2018-07-17T18:39:01.571Z,25.80
2018-07-17T18:41:30.498Z,25.70
2018-07-17T18:43:59.265Z,25.70
2018-07-17T18:46:28.125Z,25.60
2018-07-17T18:48:57.693Z,25.50
2018-07-17T18:51:26.532Z,25.40
2018-07-17T18:53:55.399Z,25.30
2018-07-17T18:56:24.981Z,25.20
2018-07-17T18:58:53.825Z,25.20
2018-07-17T19:01:22.677Z,25.20
2018-07-17T19:03:52.269Z,25.00
2018-07-17T19:06:21.124Z,25.00
2018-07-17T19:08:49.975Z,25.00
2018-07-17T19:11:18.883Z,25.00
2018-07-17T19:13:47.673Z,24.90
2018-07-17T19:16:16.514Z,24.80
2018-07-17T19:18:45.374Z,24.90
2018-07-17T19:21:14.242Z,24.80
2018-07-17T19:23:43.084Z,24.70
2018-07-17T19:26:12.721Z,24.60
2018-07-17T19:28:41.571Z,24.60
2018-07-17T19:31:10.425Z,24.60
2018-07-17T19:33:39.288Z,24.60
2018-07-17T19:36:08.894Z,24.40
2018-07-17T19:38:38.475Z,24.30
2018-07-17T19:41:07.325Z,24.30
2018-07-17T19:43:36.181Z,24.30
2018-07-17T19:46:05.023Z,24.30
2018-07-17T19:48:33.867Z,24.30
2018-07-17T19:51:03.456Z,24.30
2018-07-17T19:53:32.301Z,24.30
2018-07-17T19:56:01.147Z,24.30
2018-07-17T19:58:30.765Z,24.20
2018-07-17T20:00:59.610Z,24.20
2018-07-17T20:03:28.449Z,24.20
2018-07-17T20:05:58.041Z,24.10
2018-07-17T20:08:27.632Z,24.10
2018-07-17T20:10:56.469Z,24.20
2018-07-17T20:13:25.308Z,24.20
2018-07-17T20:15:54.158Z,24.30
2018-07-17T20:18:23.004Z,24.30
2018-07-17T20:20:51.850Z,24.20
2018-07-17T20:23:20.694Z,24.20
2018-07-17T20:25:49.545Z,24.10
2018-07-17T20:28:18.411Z,24.00
2018-07-17T20:30:47.247Z,23.90
2018-07-17T20:33:16.096Z,23.90
2018-07-17T20:35:44.954Z,23.80
2018-07-17T20:38:13.785Z,23.80
2018-07-17T20:40:42.650Z,23.70
2018-07-17T20:43:11.515Z,23.70
2018-07-17T20:45:40.347Z,23.70
2018-07-17T20:48:09.962Z,23.60
2018-07-17T20:50:38.817Z,23.60
2018-07-17T20:53:07.735Z,23.60
2018-07-17T20:55:37.233Z,23.50
2018-07-17T20:58:06.088Z,23.40
2018-07-17T21:00:34.930Z,23.40
2018-07-17T21:03:03.779Z,23.30
2018-07-17T21:05:32.630Z,23.30
2018-07-17T21:08:01.513Z,23.20
2018-07-17T21:10:30.343Z,23.10
2018-07-17T21:12:59.929Z,23.10
2018-07-17T21:15:28.773Z,23.00
2018-07-17T21:17:57.658Z,23.00
2018-07-17T21:20:26.484Z,23.00
2018-07-17T21:22:55.317Z,23.00
2018-07-17T21:25:24.180Z,22.90
2018-07-17T21:27:53.025Z,22.80
2018-07-17T21:30:21.871Z,22.80
2018-07-17T21:32:50.711Z,22.70
2018-07-17T21:35:19.564Z,22.60
2018-07-17T21:37:48.405Z,22.40
2018-07-17T21:40:17.254Z,22.30
2018-07-17T21:42:46.123Z,22.40
2018-07-17T21:45:14.965Z,22.30
2018-07-17T21:47:43.805Z,22.40
2018-07-17T21:50:12.654Z,22.50
2018-07-17T21:52:41.497Z,22.60
2018-07-17T21:55:10.337Z,22.60
2018-07-17T21:57:39.177Z,22.60
2018-07-17T22:00:08.771Z,22.60
2018-07-17T22:02:37.628Z,22.50
2018-07-17T22:05:06.474Z,22.60
2018-07-17T22:07:35.316Z,22.60
2018-07-17T22:10:04.150Z,22.60
2018-07-17T22:12:32.999Z,22.50
2018-07-17T22:15:01.848Z,22.60
2018-07-17T22:17:30.708Z,22.60
2018-07-17T22:19:59.549Z,22.60
2018-07-17T22:22:28.393Z,22.60
2018-07-17T22:24:57.244Z,22.50
2018-07-17T22:27:26.236Z,22.50
2018-07-17T22:29:54.931Z,22.50
2018-07-17T22:32:23.769Z,22.50
2018-07-17T22:34:52.624Z,22.60
2018-07-17T22:37:21.561Z,22.60
2018-07-17T22:39:50.321Z,22.60
2018-07-17T22:42:19.163Z,22.60
2018-07-17T22:44:48.011Z,22.60
2018-07-17T22:47:17.623Z,22.60
2018-07-17T22:49:46.450Z,22.50
2018-07-17T22:52:15.294Z,22.30
2018-07-17T22:54:44.878Z,22.40
2018-07-17T22:57:13.731Z,22.40
2018-07-17T22:59:42.587Z,22.50
2018-07-17T23:02:11.554Z,22.50
2018-07-17T23:04:40.343Z,22.50
2018-07-17T23:07:09.192Z,22.50
2018-07-17T23:09:38.038Z,22.50
2018-07-17T23:12:07.653Z,22.40
2018-07-17T23:14:36.465Z,22.40
2018-07-17T23:17:05.299Z,22.30
2018-07-17T23:19:34.136Z,22.30
2018-07-17T23:22:02.985Z,22.30
2018-07-17T23:24:31.830Z,22.30
2018-07-17T23:27:00.706Z,22.20
2018-07-17T23:29:29.554Z,22.20
2018-07-17T23:31:58.388Z,22.20
2018-07-17T23:34:27.224Z,22.10
2018-07-17T23:36:56.055Z,22.10
2018-07-17T23:39:25.630Z,22.10
2018-07-17T23:41:54.473Z,22.10
2018-07-17T23:44:23.304Z,22.00
2018-07-17T23:46:52.171Z,22.10
2018-07-17T23:49:21.001Z,22.20
2018-07-17T23:51:49.836Z,22.10
2018-07-17T23:54:18.669Z,22.00
2018-07-17T23:56:47.505Z,21.90
2018-07-17T23:59:16.353Z,21.90
